sensor_id;sensor_type;location;lat;lon;timestamp;pressure;altitude;pressure_sealevel;temperature;humidity
44079;BME280;29744;49.078;12.878;2024-01-30T00:01:03;97879.88;;;13.99;34.34
44079;BME280;29744;49.078;12.878;2024-01-30T00:06:03;97883.13;;;13.96;34.52
44079;BME280;29744;49.078;12.878;2024-01-30T00:11:04;97885.59;;;13.92;34.57
44079;BME280;29744;49.078;12.878;2024-01-30T00:16:04;97884.78;;;13.92;34.24
44079;BME280;29744;49.078;12.878;2024-01-30T00:21:05;97884.56;;;13.88;34.66
44079;BME280;29744;49.078;12.878;2024-01-30T00:26:05;97885.94;;;13.85;34.16
44079;BME280;29744;49.078;12.878;2024-01-30T00:31:06;97886.22;;;13.84;34.17
44079;BME280;29744;49.078;12.878;2024-01-30T00:36:08;97881.09;;;13.82;34.69
44079;BME280;29744;49.078;12.878;2024-01-30T00:41:08;97871.66;;;13.80;34.73
44079;BME280;29744;49.078;12.878;2024-01-30T00:46:09;97862.25;;;13.77;34.53
44079;BME280;29744;49.078;12.878;2024-01-30T00:51:10;97864.41;;;13.75;34.36
44079;BME280;29744;49.078;12.878;2024-01-30T00:56:10;97864.19;;;13.72;34.64
44079;BME280;29744;49.078;12.878;2024-01-30T01:01:10;97864.47;;;13.70;34.58
44079;BME280;29744;49.078;12.878;2024-01-30T01:06:11;97866.63;;;13.68;34.76
44079;BME280;29744;49.078;12.878;2024-01-30T01:11:11;97866.13;;;13.66;34.67
44079;BME280;29744;49.078;12.878;2024-01-30T01:16:11;97862.09;;;13.64;34.64
44079;BME280;29744;49.078;12.878;2024-01-30T01:21:12;97862.38;;;13.62;34.41
44079;BME280;29744;49.078;12.878;2024-01-30T01:26:12;97863.75;;;13.60;34.88
44079;BME280;29744;49.078;12.878;2024-01-30T01:31:13;97867.81;;;13.57;34.89
44079;BME280;29744;49.078;12.878;2024-01-30T01:36:13;97861.63;;;13.57;34.36
44079;BME280;29744;49.078;12.878;2024-01-30T01:41:14;97850.59;;;13.53;34.57
44079;BME280;29744;49.078;12.878;2024-01-30T01:46:14;97852.47;;;13.52;35.12
44079;BME280;29744;49.078;12.878;2024-01-30T01:51:15;97848.47;;;13.50;34.98
44079;BME280;29744;49.078;12.878;2024-01-30T01:56:16;97843.34;;;13.48;34.64
44079;BME280;29744;49.078;12.878;2024-01-30T02:01:18;97844.44;;;13.47;34.82
44079;BME280;29744;49.078;12.878;2024-01-30T02:06:20;97839.34;;;13.46;34.97
44079;BME280;29744;49.078;12.878;2024-01-30T02:11:22;97828.84;;;13.44;34.79
44079;BME280;29744;49.078;12.878;2024-01-30T02:16:23;97829.13;;;13.43;34.83
44079;BME280;29744;49.078;12.878;2024-01-30T02:21:23;97829.41;;;13.41;35.12
44079;BME280;29744;49.078;12.878;2024-01-30T02:26:24;97825.09;;;13.40;34.77
44079;BME280;29744;49.078;12.878;2024-01-30T02:31:25;97832.63;;;13.38;34.82
44079;BME280;29744;49.078;12.878;2024-01-30T02:36:26;97834.00;;;13.36;35.14
44079;BME280;29744;49.078;12.878;2024-01-30T02:41:26;97832.66;;;13.33;35.05
44079;BME280;29744;49.078;12.878;2024-01-30T02:46:26;97835.09;;;13.35;34.96
44079;BME280;29744;49.078;12.878;2024-01-30T02:51:27;97831.06;;;13.32;34.68
44079;BME280;29744;49.078;12.878;2024-01-30T02:56:27;97833.22;;;13.30;34.64
44079;BME280;29744;49.078;12.878;2024-01-30T03:01:27;97834.31;;;13.29;35.13
44079;BME280;29744;49.078;12.878;2024-01-30T03:06:28;97831.91;;;13.28;34.94
44079;BME280;29744;49.078;12.878;2024-01-30T03:11:28;97830.56;;;13.25;34.91
44079;BME280;29744;49.078;12.878;2024-01-30T03:16:28;97827.88;;;13.25;34.71
44079;BME280;29744;49.078;12.878;2024-01-30T03:21:29;97824.66;;;13.23;35.14
44079;BME280;29744;49.078;12.878;2024-01-30T03:26:29;97821.16;;;13.22;35.25
44079;BME280;29744;49.078;12.878;2024-01-30T03:31:30;97818.75;;;13.21;34.94
44079;BME280;29744;49.078;12.878;2024-01-30T03:36:30;97821.72;;;13.19;35.04
44079;BME280;29744;49.078;12.878;2024-01-30T03:41:33;97826.31;;;13.19;35.23
44079;BME280;29744;49.078;12.878;2024-01-30T03:46:33;97823.91;;;13.17;34.87
44079;BME280;29744;49.078;12.878;2024-01-30T03:51:34;97816.91;;;13.16;35.19
44079;BME280;29744;49.078;12.878;2024-01-30T03:56:34;97818.00;;;13.15;35.25
44079;BME280;29744;49.078;12.878;2024-01-30T04:01:34;97819.88;;;13.15;34.91
44079;BME280;29744;49.078;12.878;2024-01-30T04:06:35;97818.28;;;13.14;35.06
44079;BME280;29744;49.078;12.878;2024-01-30T04:11:35;97817.75;;;13.12;35.29
44079;BME280;29744;49.078;12.878;2024-01-30T04:16:35;97817.22;;;13.10;35.17
44079;BME280;29744;49.078;12.878;2024-01-30T04:21:36;97814.00;;;13.08;34.83
44079;BME280;29744;49.078;12.878;2024-01-30T04:26:36;97814.00;;;13.08;34.98
44079;BME280;29744;49.078;12.878;2024-01-30T04:31:37;97825.88;;;13.07;35.07
44079;BME280;29744;49.078;12.878;2024-01-30T04:36:37;97825.88;;;13.07;35.26
44079;BME280;29744;49.078;12.878;2024-01-30T04:41:37;97832.34;;;13.06;35.17
44079;BME280;29744;49.078;12.878;2024-01-30T04:46:37;97834.75;;;13.07;35.16
44079;BME280;29744;49.078;12.878;2024-01-30T04:51:38;97832.81;;;13.13;35.34
44079;BME280;29744;49.078;12.878;2024-01-30T04:56:38;97839.78;;;13.19;35.41
44079;BME280;29744;49.078;12.878;2024-01-30T05:01:39;97834.06;;;13.26;34.95
44079;BME280;29744;49.078;12.878;2024-01-30T05:06:40;97840.47;;;13.35;35.43
44079;BME280;29744;49.078;12.878;2024-01-30T05:11:40;97837.72;;;13.45;34.98
44079;BME280;29744;49.078;12.878;2024-01-30T05:16:41;97836.56;;;13.56;34.98
44079;BME280;29744;49.078;12.878;2024-01-30T05:21:43;97825.91;;;13.70;35.06
44079;BME280;29744;49.078;12.878;2024-01-30T05:26:43;97834.44;;;13.82;35.15
44079;BME280;29744;49.078;12.878;2024-01-30T05:31:43;97835.09;;;13.98;34.78
44079;BME280;29744;49.078;12.878;2024-01-30T05:36:44;97835.22;;;14.11;35.14
44079;BME280;29744;49.078;12.878;2024-01-30T05:41:44;97833.47;;;14.26;34.80
44079;BME280;29744;49.078;12.878;2024-01-30T05:46:44;97837.59;;;14.42;34.75
44079;BME280;29744;49.078;12.878;2024-01-30T05:51:48;97849.28;;;14.56;34.45
44079;BME280;29744;49.078;12.878;2024-01-30T05:56:48;97851.28;;;14.69;34.73
44079;BME280;29744;49.078;12.878;2024-01-30T06:01:49;97855.47;;;14.80;34.68
44079;BME280;29744;49.078;12.878;2024-01-30T06:06:49;97857.22;;;14.90;34.19
44079;BME280;29744;49.078;12.878;2024-01-30T06:11:49;97856.25;;;15.00;34.16
44079;BME280;29744;49.078;12.878;2024-01-30T06:16:50;97856.75;;;15.07;34.05
44079;BME280;29744;49.078;12.878;2024-01-30T06:21:50;97857.75;;;15.11;33.96
44079;BME280;29744;49.078;12.878;2024-01-30T06:26:50;97866.88;;;15.15;33.66
44079;BME280;29744;49.078;12.878;2024-01-30T06:31:51;97874.69;;;15.17;33.61
44079;BME280;29744;49.078;12.878;2024-01-30T06:36:51;97873.31;;;15.19;33.57
44079;BME280;29744;49.078;12.878;2024-01-30T06:41:52;97874.13;;;15.20;33.53
44079;BME280;29744;49.078;12.878;2024-01-30T06:46:52;97877.63;;;15.20;33.77
44079;BME280;29744;49.078;12.878;2024-01-30T06:51:52;97882.22;;;15.20;33.92
44079;BME280;29744;49.078;12.878;2024-01-30T06:56:53;97870.91;;;15.18;33.86
44079;BME280;29744;49.078;12.878;2024-01-30T07:01:53;97873.09;;;15.16;33.94
44079;BME280;29744;49.078;12.878;2024-01-30T07:06:54;97875.28;;;15.13;33.74
44079;BME280;29744;49.078;12.878;2024-01-30T07:11:54;97873.97;;;15.11;33.65
44079;BME280;29744;49.078;12.878;2024-01-30T07:16:55;97876.97;;;15.09;34.08
44079;BME280;29744;49.078;12.878;2024-01-30T07:21:56;97878.66;;;15.05;33.43
44079;BME280;29744;49.078;12.878;2024-01-30T07:26:56;97870.28;;;15.02;33.48
44079;BME280;29744;49.078;12.878;2024-01-30T07:31:57;97871.69;;;14.99;33.82
44079;BME280;29744;49.078;12.878;2024-01-30T07:36:57;97870.66;;;14.95;33.65
44079;BME280;29744;49.078;12.878;2024-01-30T07:41:58;97874.22;;;14.91;33.60
44079;BME280;29744;49.078;12.878;2024-01-30T07:46:58;97867.78;;;14.87;33.47
44079;BME280;29744;49.078;12.878;2024-01-30T07:51:59;97873.78;;;14.83;33.94
44079;BME280;29744;49.078;12.878;2024-01-30T07:57:00;97867.34;;;14.79;33.64
44079;BME280;29744;49.078;12.878;2024-01-30T08:02:01;97882.25;;;14.77;33.58
44079;BME280;29744;49.078;12.878;2024-01-30T08:07:01;97878.50;;;14.73;33.80
44079;BME280;29744;49.078;12.878;2024-01-30T08:12:01;97870.19;;;14.69;33.79
44079;BME280;29744;49.078;12.878;2024-01-30T08:17:02;97865.38;;;14.66;34.02
44079;BME280;29744;49.078;12.878;2024-01-30T08:22:02;97867.56;;;14.64;33.67
44079;BME280;29744;49.078;12.878;2024-01-30T08:27:03;97870.81;;;14.61;33.78
44079;BME280;29744;49.078;12.878;2024-01-30T08:32:05;97864.13;;;14.59;33.58
44079;BME280;29744;49.078;12.878;2024-01-30T08:37:06;97864.97;;;14.54;33.65
44079;BME280;29744;49.078;12.878;2024-01-30T08:42:06;97871.75;;;14.52;33.96
44079;BME280;29744;49.078;12.878;2024-01-30T08:47:08;97868.03;;;14.47;33.82
44079;BME280;29744;49.078;12.878;2024-01-30T08:52:08;97864.00;;;14.45;34.06
44079;BME280;29744;49.078;12.878;2024-01-30T08:57:08;97860.63;;;14.34;31.39
44079;BME280;29744;49.078;12.878;2024-01-30T09:02:09;97867.69;;;14.01;30.04
44079;BME280;29744;49.078;12.878;2024-01-30T09:07:10;97858.50;;;13.73;30.23
44079;BME280;29744;49.078;12.878;2024-01-30T09:12:10;97864.84;;;13.59;30.27
44079;BME280;29744;49.078;12.878;2024-01-30T09:17:11;97867.03;;;13.51;30.58
44079;BME280;29744;49.078;12.878;2024-01-30T09:22:12;97874.88;;;13.48;30.90
44079;BME280;29744;49.078;12.878;2024-01-30T09:27:12;97865.47;;;13.45;31.08
44079;BME280;29744;49.078;12.878;2024-01-30T09:32:13;97864.66;;;13.45;31.42
44079;BME280;29744;49.078;12.878;2024-01-30T09:37:13;97855.78;;;13.44;31.22
44079;BME280;29744;49.078;12.878;2024-01-30T09:42:20;97863.59;;;13.46;31.29
44079;BME280;29744;49.078;12.878;2024-01-30T09:47:26;97867.09;;;13.46;31.77
44079;BME280;29744;49.078;12.878;2024-01-30T09:52:26;97880.56;;;13.46;32.12
44079;BME280;29744;49.078;12.878;2024-01-30T09:57:27;97871.38;;;13.47;32.03
44079;BME280;29744;49.078;12.878;2024-01-30T10:02:27;97871.38;;;13.47;32.31
44079;BME280;29744;49.078;12.878;2024-01-30T10:07:28;97866.00;;;13.47;32.33
44079;BME280;29744;49.078;12.878;2024-01-30T10:12:29;97860.63;;;13.47;31.94
44079;BME280;29744;49.078;12.878;2024-01-30T10:17:30;97858.72;;;13.48;32.36
44079;BME280;29744;49.078;12.878;2024-01-30T10:22:30;97847.13;;;13.47;32.19
44079;BME280;29744;49.078;12.878;2024-01-30T10:27:30;97840.13;;;13.46;32.49
44079;BME280;29744;49.078;12.878;2024-01-30T10:32:31;97833.94;;;13.46;32.27
44079;BME280;29744;49.078;12.878;2024-01-30T10:37:31;97827.75;;;13.45;32.58
44079;BME280;29744;49.078;12.878;2024-01-30T10:42:36;97818.06;;;13.44;32.46
44079;BME280;29744;49.078;12.878;2024-01-30T10:47:36;97815.38;;;13.44;33.07
44079;BME280;29744;49.078;12.878;2024-01-30T10:52:37;97813.75;;;13.43;33.07
44079;BME280;29744;49.078;12.878;2024-01-30T10:57:38;97804.88;;;13.43;32.78
44079;BME280;29744;49.078;12.878;2024-01-30T11:02:43;97795.19;;;13.42;33.06
44079;BME280;29744;49.078;12.878;2024-01-30T11:07:44;97792.75;;;13.40;33.22
44079;BME280;29744;49.078;12.878;2024-01-30T11:12:46;97797.34;;;13.40;33.01
44079;BME280;29744;49.078;12.878;2024-01-30T11:17:51;97793.84;;;13.39;32.86
44079;BME280;29744;49.078;12.878;2024-01-30T11:22:55;97781.72;;;13.37;33.19
44079;BME280;29744;49.078;12.878;2024-01-30T11:27:56;97783.59;;;13.36;33.23
44079;BME280;29744;49.078;12.878;2024-01-30T11:33:05;97781.19;;;13.35;33.08
44079;BME280;29744;49.078;12.878;2024-01-30T11:38:06;97773.09;;;13.35;33.52
44079;BME280;29744;49.078;12.878;2024-01-30T11:43:08;97773.41;;;13.33;33.06
44079;BME280;29744;49.078;12.878;2024-01-30T11:48:11;97763.72;;;13.32;33.51
44079;BME280;29744;49.078;12.878;2024-01-30T11:53:12;97758.88;;;13.29;33.58
44079;BME280;29744;49.078;12.878;2024-01-30T11:58:12;97757.00;;;13.30;33.35
44079;BME280;29744;49.078;12.878;2024-01-30T12:03:13;97749.19;;;13.28;33.52
44079;BME280;29744;49.078;12.878;2024-01-30T12:08:16;97736.81;;;13.27;33.57
44079;BME280;29744;49.078;12.878;2024-01-30T12:13:17;97739.50;;;13.27;33.53
44079;BME280;29744;49.078;12.878;2024-01-30T12:18:20;97729.81;;;13.26;33.83
44079;BME280;29744;49.078;12.878;2024-01-30T12:23:20;97731.72;;;13.26;33.51
44079;BME280;29744;49.078;12.878;2024-01-30T12:28:25;97723.09;;;13.23;33.91
44079;BME280;29744;49.078;12.878;2024-01-30T12:33:29;97726.88;;;13.22;33.43
44079;BME280;29744;49.078;12.878;2024-01-30T12:38:30;97726.09;;;13.22;33.99
44079;BME280;29744;49.078;12.878;2024-01-30T12:43:30;97714.78;;;13.20;33.60
44079;BME280;29744;49.078;12.878;2024-01-30T12:48:31;97709.41;;;13.20;33.93
44079;BME280;29744;49.078;12.878;2024-01-30T12:53:31;97710.47;;;13.19;34.00
44079;BME280;29744;49.078;12.878;2024-01-30T12:58:32;97713.19;;;13.19;33.87
44079;BME280;29744;49.078;12.878;2024-01-30T13:03:33;97712.66;;;13.17;33.92
44079;BME280;29744;49.078;12.878;2024-01-30T13:08:33;97718.03;;;13.17;33.88
44079;BME280;29744;49.078;12.878;2024-01-30T13:13:33;97719.13;;;13.16;34.02
44079;BME280;29744;49.078;12.878;2024-01-30T13:18:35;97719.13;;;13.16;34.04
44079;BME280;29744;49.078;12.878;2024-01-30T13:23:36;97728.31;;;13.15;34.10
44079;BME280;29744;49.078;12.878;2024-01-30T13:28:36;97718.63;;;13.14;34.03
44079;BME280;29744;49.078;12.878;2024-01-30T13:33:36;97725.09;;;13.13;33.90
44079;BME280;29744;49.078;12.878;2024-01-30T13:38:37;97717.00;;;13.13;33.83
44079;BME280;29744;49.078;12.878;2024-01-30T13:43:38;97716.19;;;13.12;34.11
44079;BME280;29744;49.078;12.878;2024-01-30T13:48:38;97711.09;;;13.11;33.88
44079;BME280;29744;49.078;12.878;2024-01-30T13:53:38;97712.19;;;13.10;34.12
44079;BME280;29744;49.078;12.878;2024-01-30T13:58:39;97720.53;;;13.08;34.31
44079;BME280;29744;49.078;12.878;2024-01-30T14:03:39;97708.97;;;13.08;34.23
44079;BME280;29744;49.078;12.878;2024-01-30T14:08:40;97714.63;;;13.06;34.25
44079;BME280;29744;49.078;12.878;2024-01-30T14:13:40;97718.41;;;13.05;33.97
44079;BME280;29744;49.078;12.878;2024-01-30T14:18:41;97717.34;;;13.06;34.45
44079;BME280;29744;49.078;12.878;2024-01-30T14:23:41;97720.31;;;13.05;34.32
44079;BME280;29744;49.078;12.878;2024-01-30T14:28:41;97722.19;;;13.04;34.26
44079;BME280;29744;49.078;12.878;2024-01-30T14:33:43;97724.09;;;13.04;34.54
44079;BME280;29744;49.078;12.878;2024-01-30T14:38:44;97725.19;;;13.03;34.48
44079;BME280;29744;49.078;12.878;2024-01-30T14:43:44;97729.75;;;13.02;34.01
44079;BME280;29744;49.078;12.878;2024-01-30T14:48:45;97720.34;;;13.00;34.08
44079;BME280;29744;49.078;12.878;2024-01-30T14:53:45;97733.81;;;13.00;34.25
44079;BME280;29744;49.078;12.878;2024-01-30T14:58:45;97732.22;;;12.99;34.36
44079;BME280;29744;49.078;12.878;2024-01-30T15:03:46;97736.00;;;12.98;34.15
44079;BME280;29744;49.078;12.878;2024-01-30T15:08:46;97734.38;;;12.97;34.72
44079;BME280;29744;49.078;12.878;2024-01-30T15:13:47;97739.25;;;12.95;34.51
44079;BME280;29744;49.078;12.878;2024-01-30T15:18:47;97738.44;;;12.94;34.17
44079;BME280;29744;49.078;12.878;2024-01-30T15:23:48;97740.31;;;12.94;34.40
44079;BME280;29744;49.078;12.878;2024-01-30T15:28:48;97750.28;;;12.93;34.61
44079;BME280;29744;49.078;12.878;2024-01-30T15:33:48;97762.44;;;12.90;34.47
44079;BME280;29744;49.078;12.878;2024-01-30T15:38:49;97765.13;;;12.90;34.69
44079;BME280;29744;49.078;12.878;2024-01-30T15:43:49;97760.81;;;12.89;34.53
44079;BME280;29744;49.078;12.878;2024-01-30T15:48:49;97759.22;;;12.88;34.53
44079;BME280;29744;49.078;12.878;2024-01-30T15:53:50;97765.41;;;12.89;34.91
44079;BME280;29744;49.078;12.878;2024-01-30T15:58:51;97771.06;;;12.87;34.56
44079;BME280;29744;49.078;12.878;2024-01-30T16:03:52;97775.66;;;12.87;34.35
44079;BME280;29744;49.078;12.878;2024-01-30T16:08:52;97774.03;;;12.86;34.65
44079;BME280;29744;49.078;12.878;2024-01-30T16:13:53;97784.53;;;12.87;34.78
44079;BME280;29744;49.078;12.878;2024-01-30T16:18:53;97794.75;;;12.90;34.79
44079;BME280;29744;49.078;12.878;2024-01-30T16:23:53;97798.47;;;12.95;34.37
44079;BME280;29744;49.078;12.878;2024-01-30T16:28:54;97798.44;;;13.00;34.37
44079;BME280;29744;49.078;12.878;2024-01-30T16:33:54;97804.31;;;13.07;34.67
44079;BME280;29744;49.078;12.878;2024-01-30T16:38:57;97812.31;;;13.17;34.48
44079;BME280;29744;49.078;12.878;2024-01-30T16:43:58;97817.91;;;13.26;34.47
44079;BME280;29744;49.078;12.878;2024-01-30T16:48:59;97823.22;;;13.36;34.47
44079;BME280;29744;49.078;12.878;2024-01-30T16:53:59;97820.44;;;13.51;34.67
44079;BME280;29744;49.078;12.878;2024-01-30T16:59:00;97815.75;;;13.62;34.51
44079;BME280;29744;49.078;12.878;2024-01-30T17:04:01;97825.06;;;13.74;34.78
44079;BME280;29744;49.078;12.878;2024-01-30T17:09:01;97820.13;;;13.86;34.62
44079;BME280;29744;49.078;12.878;2024-01-30T17:14:02;97832.63;;;14.01;34.30
44079;BME280;29744;49.078;12.878;2024-01-30T17:19:03;97833.84;;;14.14;33.97
44079;BME280;29744;49.078;12.878;2024-01-30T17:24:03;97843.69;;;14.29;34.17
44079;BME280;29744;49.078;12.878;2024-01-30T17:29:04;97840.81;;;14.44;34.35
44079;BME280;29744;49.078;12.878;2024-01-30T17:34:05;97840.63;;;14.59;33.96
44079;BME280;29744;49.078;12.878;2024-01-30T17:39:05;97836.09;;;14.73;33.97
44079;BME280;29744;49.078;12.878;2024-01-30T17:44:07;97844.28;;;14.87;33.54
44079;BME280;29744;49.078;12.878;2024-01-30T17:49:07;97850.88;;;15.00;33.69
44079;BME280;29744;49.078;12.878;2024-01-30T17:54:08;97851.56;;;15.10;34.01
44079;BME280;29744;49.078;12.878;2024-01-30T17:59:08;97851.41;;;15.21;33.61
44079;BME280;29744;49.078;12.878;2024-01-30T18:04:09;97857.44;;;15.31;33.35
44079;BME280;29744;49.078;12.878;2024-01-30T18:09:09;97860.59;;;15.38;33.59
44079;BME280;29744;49.078;12.878;2024-01-30T18:14:09;97869.13;;;15.45;32.95
44079;BME280;29744;49.078;12.878;2024-01-30T18:19:10;97868.25;;;15.50;32.94
44079;BME280;29744;49.078;12.878;2024-01-30T18:24:10;97874.66;;;15.54;33.31
44079;BME280;29744;49.078;12.878;2024-01-30T18:29:10;97865.75;;;15.54;32.99
44079;BME280;29744;49.078;12.878;2024-01-30T18:34:11;97877.56;;;15.58;33.25
44079;BME280;29744;49.078;12.878;2024-01-30T18:39:11;97882.69;;;15.59;32.88
44079;BME280;29744;49.078;12.878;2024-01-30T18:44:12;97883.78;;;15.58;33.17
44079;BME280;29744;49.078;12.878;2024-01-30T18:49:12;97885.69;;;15.58;33.11
44079;BME280;29744;49.078;12.878;2024-01-30T18:54:12;97888.69;;;15.56;32.67
44079;BME280;29744;49.078;12.878;2024-01-30T18:59:13;97883.88;;;15.53;32.85
44079;BME280;29744;49.078;12.878;2024-01-30T19:04:17;97891.47;;;15.51;32.62
44079;BME280;29744;49.078;12.878;2024-01-30T19:09:18;97882.34;;;15.47;32.67
44079;BME280;29744;49.078;12.878;2024-01-30T19:14:18;97886.44;;;15.44;32.90
44079;BME280;29744;49.078;12.878;2024-01-30T19:19:19;97881.63;;;15.41;33.03
44079;BME280;29744;49.078;12.878;2024-01-30T19:24:19;97871.91;;;15.40;33.23
44079;BME280;29744;49.078;12.878;2024-01-30T19:29:19;97884.91;;;15.38;32.65
44079;BME280;29744;49.078;12.878;2024-01-30T19:34:19;97889.22;;;15.39;32.96
44079;BME280;29744;49.078;12.878;2024-01-30T19:39:20;97893.81;;;15.39;32.82
44079;BME280;29744;49.078;12.878;2024-01-30T19:44:21;97896.22;;;15.40;32.69
44079;BME280;29744;49.078;12.878;2024-01-30T19:49:21;97897.84;;;15.41;33.02
44079;BME280;29744;49.078;12.878;2024-01-30T19:54:22;97904.84;;;15.42;33.02
44079;BME280;29744;49.078;12.878;2024-01-30T19:59:28;97909.69;;;15.45;33.11
44079;BME280;29744;49.078;12.878;2024-01-30T20:04:29;97919.38;;;15.46;32.60
44079;BME280;29744;49.078;12.878;2024-01-30T20:09:29;97922.91;;;15.47;32.61
44079;BME280;29744;49.078;12.878;2024-01-30T20:14:30;97927.50;;;15.46;32.63
44079;BME280;29744;49.078;12.878;2024-01-30T20:19:30;97912.38;;;15.45;32.94
44079;BME280;29744;49.078;12.878;2024-01-30T20:24:30;97923.19;;;15.45;32.96
44079;BME280;29744;49.078;12.878;2024-01-30T20:29:31;97921.59;;;15.44;32.98
44079;BME280;29744;49.078;12.878;2024-01-30T20:34:31;97913.75;;;15.43;32.94
44079;BME280;29744;49.078;12.878;2024-01-30T20:39:31;97915.16;;;15.40;32.70
44079;BME280;29744;49.078;12.878;2024-01-30T20:44:32;97919.25;;;15.38;32.54
44079;BME280;29744;49.078;12.878;2024-01-30T20:49:32;97924.16;;;15.36;33.13
44079;BME280;29744;49.078;12.878;2024-01-30T20:54:33;97913.13;;;15.32;32.73
44079;BME280;29744;49.078;12.878;2024-01-30T20:59:35;97928.03;;;15.30;33.20
44079;BME280;29744;49.078;12.878;2024-01-30T21:04:35;97916.19;;;15.26;32.88
44079;BME280;29744;49.078;12.878;2024-01-30T21:09:35;97917.88;;;15.22;33.03
44079;BME280;29744;49.078;12.878;2024-01-30T21:14:35;97914.94;;;15.18;32.69
44079;BME280;29744;49.078;12.878;2024-01-30T21:19:36;97920.13;;;15.14;32.74
44079;BME280;29744;49.078;12.878;2024-01-30T21:24:36;97926.09;;;15.11;33.23
44079;BME280;29744;49.078;12.878;2024-01-30T21:29:36;97921.59;;;15.07;32.92
44079;BME280;29744;49.078;12.878;2024-01-30T21:34:37;97923.78;;;15.05;32.86
44079;BME280;29744;49.078;12.878;2024-01-30T21:39:37;97930.81;;;15.01;33.15
44079;BME280;29744;49.078;12.878;2024-01-30T21:44:39;97916.00;;;14.98;33.17
44079;BME280;29744;49.078;12.878;2024-01-30T21:49:39;97920.66;;;14.93;33.33
44079;BME280;29744;49.078;12.878;2024-01-30T21:54:39;97916.94;;;14.89;33.44
44079;BME280;29744;49.078;12.878;2024-01-30T21:59:40;97918.59;;;14.85;33.34
44079;BME280;29744;49.078;12.878;2024-01-30T22:04:42;97917.56;;;14.80;32.87
44079;BME280;29744;49.078;12.878;2024-01-30T22:09:42;97921.66;;;14.78;33.19
44079;BME280;29744;49.078;12.878;2024-01-30T22:14:42;97930.34;;;14.75;33.23
44079;BME280;29744;49.078;12.878;2024-01-30T22:19:43;97922.81;;;14.72;33.13
44079;BME280;29744;49.078;12.878;2024-01-30T22:24:43;97926.09;;;14.69;32.99
44079;BME280;29744;49.078;12.878;2024-01-30T22:29:44;97922.06;;;14.66;33.08
44079;BME280;29744;49.078;12.878;2024-01-30T22:34:44;97922.66;;;14.63;33.17
44079;BME280;29744;49.078;12.878;2024-01-30T22:39:44;97927.00;;;14.59;33.06
44079;BME280;29744;49.078;12.878;2024-01-30T22:44:45;97922.19;;;14.56;33.07
44079;BME280;29744;49.078;12.878;2024-01-30T22:49:46;97920.06;;;14.53;33.48
44079;BME280;29744;49.078;12.878;2024-01-30T22:54:46;97931.44;;;14.50;33.53
44079;BME280;29744;49.078;12.878;2024-01-30T22:59:47;97945.50;;;14.47;33.42
44079;BME280;29744;49.078;12.878;2024-01-30T23:04:47;97949.88;;;14.43;33.21
44079;BME280;29744;49.078;12.878;2024-01-30T23:09:47;97943.16;;;14.40;33.67
44079;BME280;29744;49.078;12.878;2024-01-30T23:14:48;97945.63;;;14.37;33.41
44079;BME280;29744;49.078;12.878;2024-01-30T23:19:49;97947.78;;;14.35;33.48
44079;BME280;29744;49.078;12.878;2024-01-30T23:24:49;97949.44;;;14.31;33.39
44079;BME280;29744;49.078;12.878;2024-01-30T23:29:50;97944.63;;;14.28;33.66
44079;BME280;29744;49.078;12.878;2024-01-30T23:34:51;97944.09;;;14.26;33.89
44079;BME280;29744;49.078;12.878;2024-01-30T23:39:51;97941.97;;;14.23;33.32
44079;BME280;29744;49.078;12.878;2024-01-30T23:44:52;97945.22;;;14.19;33.91
44079;BME280;29744;49.078;12.878;2024-01-30T23:49:53;97949.28;;;14.17;33.56
44079;BME280;29744;49.078;12.878;2024-01-30T23:54:54;97947.16;;;14.14;33.51
44079;BME280;29744;49.078;12.878;2024-01-30T23:59:54;97953.13;;;14.11;33.99
